sensor_id;sensor_type;location;lat;lon;timestamp;pressure;altitude;pressure_sealevel;temperature;humidity
47274;BME280;33007;49.082;19.306;2022-10-16T00:02:24;96481.97;;;12.00;100.00
47274;BME280;33007;49.082;19.306;2022-10-16T00:04:49;96475.34;;;11.92;100.00
47274;BME280;33007;49.082;19.306;2022-10-16T00:07:15;96480.91;;;11.97;100.00
47274;BME280;33007;49.082;19.306;2022-10-16T00:09:41;96480.34;;;11.93;100.00
47274;BME280;33007;49.082;19.306;2022-10-16T00:12:07;96491.06;;;11.97;100.00
47274;BME280;33007;49.082;19.306;2022-10-16T00:14:33;96485.97;;;11.90;100.00
47274;BME280;33007;49.082;19.306;2022-10-16T00:16:58;96484.16;;;11.87;100.00
47274;BME280;33007;49.082;19.306;2022-10-16T00:19:24;96492.91;;;11.91;100.00
47274;BME280;33007;49.082;19.306;2022-10-16T00:21:50;96508.72;;;12.01;100.00
47274;BME280;33007;49.082;19.306;2022-10-16T00:24:16;96479.03;;;11.79;100.00
47274;BME280;33007;49.082;19.306;2022-10-16T00:26:41;96501.53;;;11.89;100.00
47274;BME280;33007;49.082;19.306;2022-10-16T00:29:07;96479.50;;;11.78;100.00
47274;BME280;33007;49.082;19.306;2022-10-16T00:31:33;96471.50;;;11.74;100.00
47274;BME280;33007;49.082;19.306;2022-10-16T00:33:59;96481.00;;;11.79;100.00
47274;BME280;33007;49.082;19.306;2022-10-16T00:36:26;96490.22;;;11.82;100.00
47274;BME280;33007;49.082;19.306;2022-10-16T00:38:54;96470.91;;;11.70;100.00
47274;BME280;33007;49.082;19.306;2022-10-16T00:41:22;96482.22;;;11.78;100.00
47274;BME280;33007;49.082;19.306;2022-10-16T00:43:51;96516.94;;;11.92;100.00
47274;BME280;33007;49.082;19.306;2022-10-16T00:46:19;96516.19;;;11.92;100.00
47274;BME280;33007;49.082;19.306;2022-10-16T00:49:12;96517.75;;;11.84;100.00
47274;BME280;33007;49.082;19.306;2022-10-16T00:51:48;96520.28;;;11.87;100.00
47274;BME280;33007;49.082;19.306;2022-10-16T00:54:24;96512.59;;;11.76;100.00
47274;BME280;33007;49.082;19.306;2022-10-16T00:56:52;96502.47;;;11.77;100.00
47274;BME280;33007;49.082;19.306;2022-10-16T00:59:25;96513.06;;;11.75;100.00
47274;BME280;33007;49.082;19.306;2022-10-16T01:01:52;96504.31;;;11.71;100.00
47274;BME280;33007;49.082;19.306;2022-10-16T01:04:18;96516.66;;;11.81;100.00
47274;BME280;33007;49.082;19.306;2022-10-16T01:06:53;96536.81;;;11.84;100.00
47274;BME280;33007;49.082;19.306;2022-10-16T01:09:37;96518.50;;;11.75;100.00
47274;BME280;33007;49.082;19.306;2022-10-16T01:15:00;96525.94;;;11.74;100.00
47274;BME280;33007;49.082;19.306;2022-10-16T01:17:40;96525.28;;;11.79;100.00
47274;BME280;33007;49.082;19.306;2022-10-16T01:20:19;96535.09;;;11.86;100.00
47274;BME280;33007;49.082;19.306;2022-10-16T01:22:58;96539.97;;;11.82;100.00
47274;BME280;33007;49.082;19.306;2022-10-16T01:28:34;96510.97;;;11.70;100.00
47274;BME280;33007;49.082;19.306;2022-10-16T01:31:02;96504.94;;;11.66;100.00
47274;BME280;33007;49.082;19.306;2022-10-16T01:33:39;96509.00;;;11.70;100.00
47274;BME280;33007;49.082;19.306;2022-10-16T01:36:16;96485.38;;;11.52;100.00
47274;BME280;33007;49.082;19.306;2022-10-16T01:38:44;96503.16;;;11.63;100.00
47274;BME280;33007;49.082;19.306;2022-10-16T01:41:25;96509.63;;;11.65;100.00
47274;BME280;33007;49.082;19.306;2022-10-16T01:43:57;96528.16;;;11.85;100.00
47274;BME280;33007;49.082;19.306;2022-10-16T01:46:28;96505.25;;;11.68;100.00
47274;BME280;33007;49.082;19.306;2022-10-16T01:48:55;96510.97;;;11.70;100.00
47274;BME280;33007;49.082;19.306;2022-10-16T01:51:23;96509.75;;;11.71;100.00
47274;BME280;33007;49.082;19.306;2022-10-16T01:53:53;96512.03;;;11.72;100.00
47274;BME280;33007;49.082;19.306;2022-10-16T01:56:21;96507.50;;;11.69;100.00
47274;BME280;33007;49.082;19.306;2022-10-16T01:58:54;96505.25;;;11.68;100.00
47274;BME280;33007;49.082;19.306;2022-10-16T02:01:23;96499.69;;;11.62;100.00
47274;BME280;33007;49.082;19.306;2022-10-16T02:03:53;96513.22;;;11.71;100.00
47274;BME280;33007;49.082;19.306;2022-10-16T02:06:20;96526.09;;;11.71;100.00
47274;BME280;33007;49.082;19.306;2022-10-16T02:08:48;96519.13;;;11.70;100.00
47274;BME280;33007;49.082;19.306;2022-10-16T02:11:13;96514.31;;;11.65;100.00
47274;BME280;33007;49.082;19.306;2022-10-16T02:13:45;96512.97;;;11.60;100.00
47274;BME280;33007;49.082;19.306;2022-10-16T02:16:13;96521.75;;;11.64;100.00
47274;BME280;33007;49.082;19.306;2022-10-16T02:18:41;96529.44;;;11.66;100.00
47274;BME280;33007;49.082;19.306;2022-10-16T02:21:44;96528.53;;;11.69;100.00
47274;BME280;33007;49.082;19.306;2022-10-16T02:24:16;96547.97;;;11.76;100.00
47274;BME280;33007;49.082;19.306;2022-10-16T02:29:39;96532.16;;;11.66;100.00
47274;BME280;33007;49.082;19.306;2022-10-16T02:32:07;96534.13;;;11.65;100.00
47274;BME280;33007;49.082;19.306;2022-10-16T02:34:36;96517.25;;;11.52;100.00
47274;BME280;33007;49.082;19.306;2022-10-16T02:37:04;96527.06;;;11.59;100.00
47274;BME280;33007;49.082;19.306;2022-10-16T02:39:31;96534.13;;;11.65;100.00
47274;BME280;33007;49.082;19.306;2022-10-16T02:41:57;96520.09;;;11.58;100.00
47274;BME280;33007;49.082;19.306;2022-10-16T02:44:22;96530.97;;;11.67;100.00
47274;BME280;33007;49.082;19.306;2022-10-16T02:46:48;96536.69;;;11.69;100.00
47274;BME280;33007;49.082;19.306;2022-10-16T02:49:14;96531.75;;;11.58;100.00
47274;BME280;33007;49.082;19.306;2022-10-16T02:51:39;96553.25;;;11.80;100.00
47274;BME280;33007;49.082;19.306;2022-10-16T02:54:05;96538.06;;;11.64;100.00
47274;BME280;33007;49.082;19.306;2022-10-16T02:56:31;96540.50;;;11.62;100.00
47274;BME280;33007;49.082;19.306;2022-10-16T02:58:56;96556.00;;;11.71;100.00
47274;BME280;33007;49.082;19.306;2022-10-16T03:01:23;96545.47;;;11.64;100.00
47274;BME280;33007;49.082;19.306;2022-10-16T03:03:49;96518.78;;;11.44;100.00
47274;BME280;33007;49.082;19.306;2022-10-16T03:06:15;96543.66;;;11.61;100.00
47274;BME280;33007;49.082;19.306;2022-10-16T03:08:41;96553.47;;;11.67;100.00
47274;BME280;33007;49.082;19.306;2022-10-16T03:11:07;96553.47;;;11.67;100.00
47274;BME280;33007;49.082;19.306;2022-10-16T03:13:33;96568.25;;;11.75;100.00
47274;BME280;33007;49.082;19.306;2022-10-16T03:15:58;96556.94;;;11.68;100.00
47274;BME280;33007;49.082;19.306;2022-10-16T03:18:24;96552.41;;;11.65;100.00
47274;BME280;33007;49.082;19.306;2022-10-16T03:20:49;96552.59;;;11.61;100.00
47274;BME280;33007;49.082;19.306;2022-10-16T03:23:15;96554.25;;;11.59;100.00
47274;BME280;33007;49.082;19.306;2022-10-16T03:25:41;96550.50;;;11.56;100.00
47274;BME280;33007;49.082;19.306;2022-10-16T03:28:07;96560.44;;;11.59;100.00
47274;BME280;33007;49.082;19.306;2022-10-16T03:30:33;96561.94;;;11.60;100.00
47274;BME280;33007;49.082;19.306;2022-10-16T03:32:59;96560.16;;;11.57;100.00
47274;BME280;33007;49.082;19.306;2022-10-16T03:35:24;96556.38;;;11.54;100.00
47274;BME280;33007;49.082;19.306;2022-10-16T03:37:50;96551.56;;;11.49;100.00
47274;BME280;33007;49.082;19.306;2022-10-16T03:40:16;96558.81;;;11.52;100.00
47274;BME280;33007;49.082;19.306;2022-10-16T03:42:43;96574.03;;;11.59;100.00
47274;BME280;33007;49.082;19.306;2022-10-16T03:45:10;96560.16;;;11.57;100.00
47274;BME280;33007;49.082;19.306;2022-10-16T03:47:36;96580.22;;;11.69;100.00
47274;BME280;33007;49.082;19.306;2022-10-16T03:50:03;96583.97;;;11.71;100.00
47274;BME280;33007;49.082;19.306;2022-10-16T03:52:29;96556.84;;;11.53;100.00
47274;BME280;33007;49.082;19.306;2022-10-16T03:54:55;96558.06;;;11.52;100.00
47274;BME280;33007;49.082;19.306;2022-10-16T03:57:21;96576.00;;;11.59;100.00
47274;BME280;33007;49.082;19.306;2022-10-16T03:59:47;96572.53;;;11.58;100.00
47274;BME280;33007;49.082;19.306;2022-10-16T04:02:13;96576.00;;;11.59;100.00
47274;BME280;33007;49.082;19.306;2022-10-16T04:04:39;96592.59;;;11.70;100.00
47274;BME280;33007;49.082;19.306;2022-10-16T04:07:04;96581.44;;;11.68;100.00
47274;BME280;33007;49.082;19.306;2022-10-16T04:09:30;96593.19;;;11.74;100.00
47274;BME280;33007;49.082;19.306;2022-10-16T04:11:56;96580.56;;;11.62;100.00
47274;BME280;33007;49.082;19.306;2022-10-16T04:14:22;96587.63;;;11.68;100.00
47274;BME280;33007;49.082;19.306;2022-10-16T04:16:48;96570.53;;;11.68;100.00
47274;BME280;33007;49.082;19.306;2022-10-16T04:19:14;96590.47;;;11.74;100.00
47274;BME280;33007;49.082;19.306;2022-10-16T04:21:39;96590.34;;;11.68;100.00
47274;BME280;33007;49.082;19.306;2022-10-16T04:24:05;96578.88;;;11.55;100.00
47274;BME280;33007;49.082;19.306;2022-10-16T04:26:31;96584.94;;;11.59;100.00
47274;BME280;33007;49.082;19.306;2022-10-16T04:28:56;96599.13;;;11.63;100.00
47274;BME280;33007;49.082;19.306;2022-10-16T04:31:22;96593.09;;;11.59;100.00
47274;BME280;33007;49.082;19.306;2022-10-16T04:33:48;96591.44;;;11.62;100.00
47274;BME280;33007;49.082;19.306;2022-10-16T04:36:14;96581.16;;;11.57;100.00
47274;BME280;33007;49.082;19.306;2022-10-16T04:38:40;96605.31;;;11.64;100.00
47274;BME280;33007;49.082;19.306;2022-10-16T04:41:06;96612.56;;;11.67;100.00
47274;BME280;33007;49.082;19.306;2022-10-16T04:43:33;96602.47;;;11.58;100.00
47274;BME280;33007;49.082;19.306;2022-10-16T04:45:59;96588.88;;;11.49;100.00
47274;BME280;33007;49.082;19.306;2022-10-16T04:48:26;96596.13;;;11.52;100.00
47274;BME280;33007;49.082;19.306;2022-10-16T04:50:51;96567.47;;;11.33;100.00
47274;BME280;33007;49.082;19.306;2022-10-16T04:53:17;96588.75;;;11.43;100.00
47274;BME280;33007;49.082;19.306;2022-10-16T04:55:43;96592.34;;;11.49;100.00
47274;BME280;33007;49.082;19.306;2022-10-16T04:58:10;96625.13;;;11.55;100.00
47274;BME280;33007;49.082;19.306;2022-10-16T05:00:36;96598.59;;;11.41;100.00
47274;BME280;33007;49.082;19.306;2022-10-16T05:03:03;96608.66;;;11.49;100.00
47274;BME280;33007;49.082;19.306;2022-10-16T05:05:33;96610.34;;;11.47;100.00
47274;BME280;33007;49.082;19.306;2022-10-16T05:07:59;96631.78;;;11.63;100.00
47274;BME280;33007;49.082;19.306;2022-10-16T05:10:25;96613.34;;;11.49;100.00
47274;BME280;33007;49.082;19.306;2022-10-16T05:12:50;96611.84;;;11.57;100.00
47274;BME280;33007;49.082;19.306;2022-10-16T05:15:17;96617.28;;;11.57;100.00
47274;BME280;33007;49.082;19.306;2022-10-16T05:17:43;96619.88;;;11.51;100.00
47274;BME280;33007;49.082;19.306;2022-10-16T05:20:10;96625.00;;;11.49;100.00
47274;BME280;33007;49.082;19.306;2022-10-16T05:22:36;96634.03;;;11.55;100.00
47274;BME280;33007;49.082;19.306;2022-10-16T05:25:02;96640.25;;;11.56;100.00
47274;BME280;33007;49.082;19.306;2022-10-16T05:27:28;96645.22;;;11.67;100.00
47274;BME280;33007;49.082;19.306;2022-10-16T05:29:54;96638.91;;;11.51;100.00
47274;BME280;33007;49.082;19.306;2022-10-16T05:32:19;96640.88;;;11.51;100.00
47274;BME280;33007;49.082;19.306;2022-10-16T05:34:45;96633.75;;;11.53;100.00
47274;BME280;33007;49.082;19.306;2022-10-16T05:37:12;96640.84;;;11.60;100.00
47274;BME280;33007;49.082;19.306;2022-10-16T05:39:38;96624.84;;;11.53;100.00
47274;BME280;33007;49.082;19.306;2022-10-16T05:42:05;96651.38;;;11.76;100.00
47274;BME280;33007;49.082;19.306;2022-10-16T05:44:31;96629.94;;;11.60;100.00
47274;BME280;33007;49.082;19.306;2022-10-16T05:46:57;96632.50;;;11.73;100.00
47274;BME280;33007;49.082;19.306;2022-10-16T05:49:23;96633.53;;;11.75;100.00
47274;BME280;33007;49.082;19.306;2022-10-16T05:51:49;96657.69;;;11.92;100.00
47274;BME280;33007;49.082;19.306;2022-10-16T05:54:15;96655.28;;;11.94;100.00
47274;BME280;33007;49.082;19.306;2022-10-16T05:56:40;96631.13;;;11.77;100.00
47274;BME280;33007;49.082;19.306;2022-10-16T05:59:06;96642.63;;;11.82;100.00
47274;BME280;33007;49.082;19.306;2022-10-16T06:01:33;96634.75;;;11.74;100.00
47274;BME280;33007;49.082;19.306;2022-10-16T06:03:59;96651.22;;;11.71;100.00
47274;BME280;33007;49.082;19.306;2022-10-16T06:06:26;96674.50;;;11.81;100.00
47274;BME280;33007;49.082;19.306;2022-10-16T06:08:54;96672.53;;;11.91;100.00
47274;BME280;33007;49.082;19.306;2022-10-16T06:11:22;96651.38;;;11.76;100.00
47274;BME280;33007;49.082;19.306;2022-10-16T06:13:50;96646.25;;;11.78;100.00
47274;BME280;33007;49.082;19.306;2022-10-16T06:16:16;96657.88;;;11.79;100.00
47274;BME280;33007;49.082;19.306;2022-10-16T06:18:42;96658.50;;;11.74;100.00
47274;BME280;33007;49.082;19.306;2022-10-16T06:21:14;96660.47;;;11.73;100.00
47274;BME280;33007;49.082;19.306;2022-10-16T06:23:41;96668.75;;;11.79;100.00
47274;BME280;33007;49.082;19.306;2022-10-16T06:26:09;96683.88;;;11.89;100.00
47274;BME280;33007;49.082;19.306;2022-10-16T06:28:36;96664.22;;;11.76;100.00
47274;BME280;33007;49.082;19.306;2022-10-16T06:31:04;96694.69;;;12.07;100.00
47274;BME280;33007;49.082;19.306;2022-10-16T06:33:30;96683.53;;;12.05;100.00
47274;BME280;33007;49.082;19.306;2022-10-16T06:36:07;96707.78;;;12.27;100.00
47274;BME280;33007;49.082;19.306;2022-10-16T06:38:34;96696.78;;;12.22;100.00
47274;BME280;33007;49.082;19.306;2022-10-16T06:41:01;96702.19;;;12.31;100.00
47274;BME280;33007;49.082;19.306;2022-10-16T06:43:28;96723.13;;;12.49;100.00
47274;BME280;33007;49.082;19.306;2022-10-16T06:45:59;96729.63;;;12.51;100.00
47274;BME280;33007;49.082;19.306;2022-10-16T06:48:26;96715.31;;;12.42;100.00
47274;BME280;33007;49.082;19.306;2022-10-16T06:53:26;96731.41;;;12.64;100.00
47274;BME280;33007;49.082;19.306;2022-10-16T06:55:52;96715.09;;;12.54;100.00
47274;BME280;33007;49.082;19.306;2022-10-16T06:58:18;96723.09;;;12.58;100.00
47274;BME280;33007;49.082;19.306;2022-10-16T07:00:44;96708.59;;;12.52;100.00
47274;BME280;33007;49.082;19.306;2022-10-16T07:03:11;96715.50;;;12.62;100.00
47274;BME280;33007;49.082;19.306;2022-10-16T07:05:41;96722.28;;;12.67;100.00
47274;BME280;33007;49.082;19.306;2022-10-16T07:08:07;96742.19;;;12.82;100.00
47274;BME280;33007;49.082;19.306;2022-10-16T07:10:34;96724.38;;;12.72;100.00
47274;BME280;33007;49.082;19.306;2022-10-16T07:13:00;96711.84;;;12.65;100.00
47274;BME280;33007;49.082;19.306;2022-10-16T07:15:26;96727.22;;;12.77;100.00
47274;BME280;33007;49.082;19.306;2022-10-16T07:17:53;96739.13;;;12.89;99.70
47274;BME280;33007;49.082;19.306;2022-10-16T07:20:19;96748.19;;;12.95;99.47
47274;BME280;33007;49.082;19.306;2022-10-16T07:22:45;96756.59;;;13.06;99.57
47274;BME280;33007;49.082;19.306;2022-10-16T07:25:11;96734.66;;;13.01;99.33
47274;BME280;33007;49.082;19.306;2022-10-16T07:27:38;96749.75;;;13.11;98.05
47274;BME280;33007;49.082;19.306;2022-10-16T07:30:04;96733.84;;;13.09;98.19
47274;BME280;33007;49.082;19.306;2022-10-16T07:32:31;96742.56;;;13.23;98.02
47274;BME280;33007;49.082;19.306;2022-10-16T07:34:56;96735.63;;;13.13;97.52
47274;BME280;33007;49.082;19.306;2022-10-16T07:37:22;96715.69;;;13.06;96.31
47274;BME280;33007;49.082;19.306;2022-10-16T07:39:48;96744.34;;;13.26;97.46
47274;BME280;33007;49.082;19.306;2022-10-16T07:42:14;96750.69;;;13.32;97.52
47274;BME280;33007;49.082;19.306;2022-10-16T07:44:40;96737.13;;;13.23;94.57
47274;BME280;33007;49.082;19.306;2022-10-16T07:47:06;96750.06;;;13.37;95.10
47274;BME280;33007;49.082;19.306;2022-10-16T07:49:32;96723.97;;;13.12;95.96
47274;BME280;33007;49.082;19.306;2022-10-16T07:51:58;96750.81;;;13.38;95.38
47274;BME280;33007;49.082;19.306;2022-10-16T07:54:24;96758.25;;;13.52;94.88
47274;BME280;33007;49.082;19.306;2022-10-16T07:56:50;96725.84;;;13.30;94.54
47274;BME280;33007;49.082;19.306;2022-10-16T07:59:16;96757.50;;;13.51;92.75
47274;BME280;33007;49.082;19.306;2022-10-16T08:01:42;96740.09;;;13.49;91.50
47274;BME280;33007;49.082;19.306;2022-10-16T08:04:08;96731.91;;;13.49;91.89
47274;BME280;33007;49.082;19.306;2022-10-16T08:06:39;96754.06;;;13.66;92.44
47274;BME280;33007;49.082;19.306;2022-10-16T08:09:07;96759.88;;;13.73;91.16
47274;BME280;33007;49.082;19.306;2022-10-16T08:11:33;96768.19;;;13.94;92.41
47274;BME280;33007;49.082;19.306;2022-10-16T08:13:59;96775.91;;;13.95;92.35
47274;BME280;33007;49.082;19.306;2022-10-16T08:16:25;96780.72;;;14.00;91.56
47274;BME280;33007;49.082;19.306;2022-10-16T08:18:51;96770.66;;;13.92;91.59
47274;BME280;33007;49.082;19.306;2022-10-16T08:21:19;96785.06;;;14.07;92.36
47274;BME280;33007;49.082;19.306;2022-10-16T08:23:45;96768.19;;;13.94;90.07
47274;BME280;33007;49.082;19.306;2022-10-16T08:26:12;96798.53;;;14.10;90.71
47274;BME280;33007;49.082;19.306;2022-10-16T08:28:38;96799.56;;;14.13;90.58
47274;BME280;33007;49.082;19.306;2022-10-16T08:31:13;96771.22;;;13.96;91.96
47274;BME280;33007;49.082;19.306;2022-10-16T08:33:42;96800.16;;;14.17;91.31
47274;BME280;33007;49.082;19.306;2022-10-16T08:36:09;96772.81;;;14.02;90.53
47274;BME280;33007;49.082;19.306;2022-10-16T08:38:35;96795.22;;;14.21;91.10
47274;BME280;33007;49.082;19.306;2022-10-16T08:49:12;96794.13;;;14.28;90.52
47274;BME280;33007;49.082;19.306;2022-10-16T08:51:41;96797.69;;;14.34;90.67
47274;BME280;33007;49.082;19.306;2022-10-16T08:56:45;96776.28;;;14.32;90.26
47274;BME280;33007;49.082;19.306;2022-10-16T08:59:13;96793.81;;;14.40;90.00
47274;BME280;33007;49.082;19.306;2022-10-16T09:01:44;96782.81;;;14.35;90.18
47274;BME280;33007;49.082;19.306;2022-10-16T09:06:59;96810.78;;;14.59;89.37
47274;BME280;33007;49.082;19.306;2022-10-16T09:12:22;96792.69;;;14.62;88.37
47274;BME280;33007;49.082;19.306;2022-10-16T09:15:12;96806.53;;;14.73;86.45
47274;BME280;33007;49.082;19.306;2022-10-16T09:17:52;96791.47;;;14.63;86.82
47274;BME280;33007;49.082;19.306;2022-10-16T09:20:27;96818.66;;;14.87;85.62
47274;BME280;33007;49.082;19.306;2022-10-16T09:25:31;96814.41;;;14.86;86.41
47274;BME280;33007;49.082;19.306;2022-10-16T09:27:57;96804.50;;;14.88;85.27
47274;BME280;33007;49.082;19.306;2022-10-16T09:30:27;96813.69;;;15.06;85.88
47274;BME280;33007;49.082;19.306;2022-10-16T09:32:54;96800.34;;;14.93;85.06
47274;BME280;33007;49.082;19.306;2022-10-16T09:35:22;96822.47;;;15.10;82.31
47274;BME280;33007;49.082;19.306;2022-10-16T09:37:53;96802.88;;;14.97;80.44
47274;BME280;33007;49.082;19.306;2022-10-16T09:40:36;96817.97;;;15.27;80.25
47274;BME280;33007;49.082;19.306;2022-10-16T09:43:19;96817.97;;;15.48;80.65
47274;BME280;33007;49.082;19.306;2022-10-16T09:46:06;96802.94;;;15.58;77.71
47274;BME280;33007;49.082;19.306;2022-10-16T09:48:48;96816.75;;;15.89;78.19
47274;BME280;33007;49.082;19.306;2022-10-16T09:51:35;96808.03;;;15.91;75.46
47274;BME280;33007;49.082;19.306;2022-10-16T09:54:11;96815.91;;;16.04;75.94
47274;BME280;33007;49.082;19.306;2022-10-16T09:56:37;96792.41;;;15.97;75.30
47274;BME280;33007;49.082;19.306;2022-10-16T10:01:42;96804.06;;;16.18;77.08
47274;BME280;33007;49.082;19.306;2022-10-16T10:04:08;96791.81;;;16.13;74.43
47274;BME280;33007;49.082;19.306;2022-10-16T10:06:40;96797.44;;;16.24;74.66
47274;BME280;33007;49.082;19.306;2022-10-16T10:09:19;96786.47;;;16.24;72.78
47274;BME280;33007;49.082;19.306;2022-10-16T10:11:55;96813.56;;;16.48;72.92
47274;BME280;33007;49.082;19.306;2022-10-16T10:14:37;96817.63;;;16.59;72.03
47274;BME280;33007;49.082;19.306;2022-10-16T10:19:46;96792.75;;;16.31;69.99
47274;BME280;33007;49.082;19.306;2022-10-16T10:33:43;96817.19;;;16.66;67.38
47274;BME280;33007;49.082;19.306;2022-10-16T10:38:59;96826.41;;;16.63;65.73
47274;BME280;33007;49.082;19.306;2022-10-16T10:47:00;96814.53;;;16.45;67.90
47274;BME280;33007;49.082;19.306;2022-10-16T11:06:39;96830.16;;;16.65;68.08
47274;BME280;33007;49.082;19.306;2022-10-16T11:09:21;96819.81;;;16.49;66.49
47274;BME280;33007;49.082;19.306;2022-10-16T11:14:28;96839.63;;;16.64;68.12
47274;BME280;33007;49.082;19.306;2022-10-16T11:19:41;96826.66;;;16.65;68.19
47274;BME280;33007;49.082;19.306;2022-10-16T11:22:19;96816.16;;;16.58;68.54
47274;BME280;33007;49.082;19.306;2022-10-16T11:27:40;96801.16;;;16.53;67.91
47274;BME280;33007;49.082;19.306;2022-10-16T11:30:15;96841.06;;;16.86;68.60
47274;BME280;33007;49.082;19.306;2022-10-16T11:33:04;96809.88;;;16.83;68.29
47274;BME280;33007;49.082;19.306;2022-10-16T11:35:44;96838.91;;;17.01;68.10
47274;BME280;33007;49.082;19.306;2022-10-16T11:38:37;96825.25;;;17.07;66.94
47274;BME280;33007;49.082;19.306;2022-10-16T11:41:31;96830.50;;;17.10;67.96
47274;BME280;33007;49.082;19.306;2022-10-16T11:46:40;96816.31;;;17.17;67.20
47274;BME280;33007;49.082;19.306;2022-10-16T11:49:24;96825.06;;;17.16;63.81
47274;BME280;33007;49.082;19.306;2022-10-16T11:52:10;96847.63;;;17.37;64.89
47274;BME280;33007;49.082;19.306;2022-10-16T11:54:52;96847.88;;;17.39;64.12
47274;BME280;33007;49.082;19.306;2022-10-16T11:57:32;96844.16;;;17.42;65.06
47274;BME280;33007;49.082;19.306;2022-10-16T12:00:05;96839.66;;;17.44;63.79
47274;BME280;33007;49.082;19.306;2022-10-16T12:08:13;96841.91;;;17.46;64.80
47274;BME280;33007;49.082;19.306;2022-10-16T12:16:07;96831.44;;;17.44;63.92
47274;BME280;33007;49.082;19.306;2022-10-16T12:18:46;96818.91;;;17.32;63.73
47274;BME280;33007;49.082;19.306;2022-10-16T12:21:13;96821.84;;;17.23;63.87
47274;BME280;33007;49.082;19.306;2022-10-16T12:23:58;96830.91;;;17.40;63.41
47274;BME280;33007;49.082;19.306;2022-10-16T12:26:36;96815.16;;;17.35;64.33
47274;BME280;33007;49.082;19.306;2022-10-16T12:29:17;96823.19;;;17.44;62.26
47274;BME280;33007;49.082;19.306;2022-10-16T12:31:48;96823.66;;;17.37;63.51
47274;BME280;33007;49.082;19.306;2022-10-16T12:34:29;96813.63;;;17.28;63.03
47274;BME280;33007;49.082;19.306;2022-10-16T12:36:55;96831.91;;;17.37;65.42
47274;BME280;33007;49.082;19.306;2022-10-16T12:39:32;96818.88;;;17.26;63.96
47274;BME280;33007;49.082;19.306;2022-10-16T12:42:04;96817.88;;;17.29;63.06
47274;BME280;33007;49.082;19.306;2022-10-16T12:44:40;96806.63;;;17.22;63.14
47274;BME280;33007;49.082;19.306;2022-10-16T12:47:19;96808.38;;;17.31;63.67
47274;BME280;33007;49.082;19.306;2022-10-16T12:49:52;96793.38;;;17.20;63.46
47274;BME280;33007;49.082;19.306;2022-10-16T12:54:59;96814.00;;;17.53;64.39
47274;BME280;33007;49.082;19.306;2022-10-16T12:57:50;96839.34;;;17.79;63.72
47274;BME280;33007;49.082;19.306;2022-10-16T13:00:44;96837.34;;;17.80;61.14
47274;BME280;33007;49.082;19.306;2022-10-16T13:11:08;96815.13;;;17.89;62.33
47274;BME280;33007;49.082;19.306;2022-10-16T13:16:22;96832.16;;;18.04;60.32
47274;BME280;33007;49.082;19.306;2022-10-16T13:30:20;96825.16;;;17.38;60.93
47274;BME280;33007;49.082;19.306;2022-10-16T13:32:48;96831.06;;;17.25;61.93
47274;BME280;33007;49.082;19.306;2022-10-16T13:35:25;96828.31;;;17.25;62.74
47274;BME280;33007;49.082;19.306;2022-10-16T13:37:51;96835.06;;;17.24;63.88
47274;BME280;33007;49.082;19.306;2022-10-16T13:40:27;96839.03;;;17.18;64.18
47274;BME280;33007;49.082;19.306;2022-10-16T13:42:53;96826.53;;;17.17;62.99
47274;BME280;33007;49.082;19.306;2022-10-16T13:45:21;96843.44;;;17.10;64.67
47274;BME280;33007;49.082;19.306;2022-10-16T13:47:47;96836.19;;;17.01;63.57
47274;BME280;33007;49.082;19.306;2022-10-16T13:50:15;96864.19;;;17.11;64.41
47274;BME280;33007;49.082;19.306;2022-10-16T13:52:42;96859.88;;;17.04;65.33
47274;BME280;33007;49.082;19.306;2022-10-16T13:55:12;96864.09;;;16.99;65.95
47274;BME280;33007;49.082;19.306;2022-10-16T13:57:38;96847.03;;;16.84;65.31
47274;BME280;33007;49.082;19.306;2022-10-16T14:00:18;96844.75;;;16.83;66.83
47274;BME280;33007;49.082;19.306;2022-10-16T14:02:44;96848.75;;;16.82;67.44
47274;BME280;33007;49.082;19.306;2022-10-16T14:05:10;96868.81;;;16.99;65.99
47274;BME280;33007;49.082;19.306;2022-10-16T14:07:36;96860.75;;;16.84;65.92
47274;BME280;33007;49.082;19.306;2022-10-16T14:10:07;96868.69;;;16.82;65.03
47274;BME280;33007;49.082;19.306;2022-10-16T14:12:44;96865.69;;;16.80;66.37
47274;BME280;33007;49.082;19.306;2022-10-16T14:15:17;96874.84;;;16.71;65.83
47274;BME280;33007;49.082;19.306;2022-10-16T14:17:47;96867.28;;;16.66;65.56
47274;BME280;33007;49.082;19.306;2022-10-16T14:20:15;96853.94;;;16.48;65.15
47274;BME280;33007;49.082;19.306;2022-10-16T14:22:42;96891.94;;;16.61;64.85
47274;BME280;33007;49.082;19.306;2022-10-16T14:30:35;96847.66;;;16.16;67.92
47274;BME280;33007;49.082;19.306;2022-10-16T14:33:04;96894.03;;;16.45;67.81
47274;BME280;33007;49.082;19.306;2022-10-16T14:35:36;96873.19;;;16.28;67.80
47274;BME280;33007;49.082;19.306;2022-10-16T14:38:03;96904.13;;;16.34;68.46
47274;BME280;33007;49.082;19.306;2022-10-16T14:40:32;96873.81;;;16.17;66.39
47274;BME280;33007;49.082;19.306;2022-10-16T14:42:59;96860.50;;;16.04;67.98
47274;BME280;33007;49.082;19.306;2022-10-16T14:45:31;96840.34;;;15.87;67.77
47274;BME280;33007;49.082;19.306;2022-10-16T14:48:03;96844.69;;;15.93;69.99
47274;BME280;33007;49.082;19.306;2022-10-16T14:50:30;96878.69;;;16.07;68.61
47274;BME280;33007;49.082;19.306;2022-10-16T14:52:56;96870.34;;;15.96;70.40
47274;BME280;33007;49.082;19.306;2022-10-16T14:55:23;96865.22;;;15.83;69.72
47274;BME280;33007;49.082;19.306;2022-10-16T14:57:50;96862.00;;;15.85;69.95
47274;BME280;33007;49.082;19.306;2022-10-16T15:00:17;96891.78;;;15.97;70.59
47274;BME280;33007;49.082;19.306;2022-10-16T15:02:44;96890.00;;;15.94;71.37